sensor_id;sensor_type;location;lat;lon;timestamp;temperature;humidity
46217;DHT22;47258;59.424;13.482;2023-04-03T00:00:19;0.00;99.60
46217;DHT22;47258;59.424;13.482;2023-04-03T00:02:46;0.00;99.70
46217;DHT22;47258;59.424;13.482;2023-04-03T00:05:13;-0.10;99.80
46217;DHT22;47258;59.424;13.482;2023-04-03T00:07:40;-0.10;99.90
46217;DHT22;47258;59.424;13.482;2023-04-03T00:10:09;-0.10;99.90
46217;DHT22;47258;59.424;13.482;2023-04-03T00:12:36;-0.20;99.80
46217;DHT22;47258;59.424;13.482;2023-04-03T00:15:03;-0.20;99.80
46217;DHT22;47258;59.424;13.482;2023-04-03T00:17:30;-0.20;99.80
46217;DHT22;47258;59.424;13.482;2023-04-03T00:19:57;-0.20;99.90
46217;DHT22;47258;59.424;13.482;2023-04-03T00:22:23;-0.30;99.80
46217;DHT22;47258;59.424;13.482;2023-04-03T00:24:51;-0.30;99.90
46217;DHT22;47258;59.424;13.482;2023-04-03T00:27:20;-0.30;99.90
46217;DHT22;47258;59.424;13.482;2023-04-03T00:29:47;-0.30;99.90
46217;DHT22;47258;59.424;13.482;2023-04-03T00:32:13;-0.30;99.90
46217;DHT22;47258;59.424;13.482;2023-04-03T00:34:40;-0.40;99.90
46217;DHT22;47258;59.424;13.482;2023-04-03T00:37:07;-0.40;99.90
46217;DHT22;47258;59.424;13.482;2023-04-03T00:39:34;-0.40;99.90
46217;DHT22;47258;59.424;13.482;2023-04-03T00:42:01;-0.40;99.90
46217;DHT22;47258;59.424;13.482;2023-04-03T00:47:15;-0.50;99.90
46217;DHT22;47258;59.424;13.482;2023-04-03T00:49:43;-0.50;99.90
46217;DHT22;47258;59.424;13.482;2023-04-03T00:52:11;-0.50;99.90
46217;DHT22;47258;59.424;13.482;2023-04-03T00:54:40;-0.50;99.90
46217;DHT22;47258;59.424;13.482;2023-04-03T00:57:07;-0.60;99.90
46217;DHT22;47258;59.424;13.482;2023-04-03T00:59:35;-0.60;99.90
46217;DHT22;47258;59.424;13.482;2023-04-03T01:02:05;-0.60;99.90
46217;DHT22;47258;59.424;13.482;2023-04-03T01:04:34;-0.60;99.90
46217;DHT22;47258;59.424;13.482;2023-04-03T01:07:04;-0.60;99.90
46217;DHT22;47258;59.424;13.482;2023-04-03T01:09:33;-0.70;99.90
46217;DHT22;47258;59.424;13.482;2023-04-03T01:12:12;-0.70;99.90
46217;DHT22;47258;59.424;13.482;2023-04-03T01:14:39;-0.70;99.90
46217;DHT22;47258;59.424;13.482;2023-04-03T01:17:21;-0.70;99.90
46217;DHT22;47258;59.424;13.482;2023-04-03T01:19:54;-0.80;99.90
46217;DHT22;47258;59.424;13.482;2023-04-03T01:22:24;-0.80;99.90
46217;DHT22;47258;59.424;13.482;2023-04-03T01:24:53;-0.80;99.90
46217;DHT22;47258;59.424;13.482;2023-04-03T01:27:21;-0.80;99.90
46217;DHT22;47258;59.424;13.482;2023-04-03T01:29:48;-0.90;99.90
46217;DHT22;47258;59.424;13.482;2023-04-03T01:32:16;-0.90;99.90
46217;DHT22;47258;59.424;13.482;2023-04-03T01:34:43;-0.90;99.90
46217;DHT22;47258;59.424;13.482;2023-04-03T01:37:10;-0.90;99.90
46217;DHT22;47258;59.424;13.482;2023-04-03T01:39:37;-0.90;99.90
46217;DHT22;47258;59.424;13.482;2023-04-03T01:42:04;-1.00;99.90
46217;DHT22;47258;59.424;13.482;2023-04-03T01:44:32;-1.00;99.90
46217;DHT22;47258;59.424;13.482;2023-04-03T01:46:59;-1.00;99.90
46217;DHT22;47258;59.424;13.482;2023-04-03T01:49:27;-1.10;99.90
46217;DHT22;47258;59.424;13.482;2023-04-03T01:51:54;-1.10;99.90
46217;DHT22;47258;59.424;13.482;2023-04-03T01:54:21;-1.10;99.90
46217;DHT22;47258;59.424;13.482;2023-04-03T01:56:48;-1.10;99.90
46217;DHT22;47258;59.424;13.482;2023-04-03T01:59:15;-1.20;99.90
46217;DHT22;47258;59.424;13.482;2023-04-03T02:01:44;-1.20;99.90
46217;DHT22;47258;59.424;13.482;2023-04-03T02:04:11;-1.20;99.90
46217;DHT22;47258;59.424;13.482;2023-04-03T02:06:40;-1.30;99.90
46217;DHT22;47258;59.424;13.482;2023-04-03T02:09:07;-1.30;99.90
46217;DHT22;47258;59.424;13.482;2023-04-03T02:11:34;-1.30;99.90
46217;DHT22;47258;59.424;13.482;2023-04-03T02:14:01;-1.30;99.90
46217;DHT22;47258;59.424;13.482;2023-04-03T02:16:28;-1.40;99.90
46217;DHT22;47258;59.424;13.482;2023-04-03T02:18:56;-1.40;99.90
46217;DHT22;47258;59.424;13.482;2023-04-03T02:21:23;-1.40;99.90
46217;DHT22;47258;59.424;13.482;2023-04-03T02:23:52;-1.40;99.90
46217;DHT22;47258;59.424;13.482;2023-04-03T02:26:19;-1.50;99.90
46217;DHT22;47258;59.424;13.482;2023-04-03T02:28:46;-1.50;99.90
46217;DHT22;47258;59.424;13.482;2023-04-03T02:31:13;-1.50;99.90
46217;DHT22;47258;59.424;13.482;2023-04-03T02:33:41;-1.50;99.90
46217;DHT22;47258;59.424;13.482;2023-04-03T02:36:09;-1.60;99.90
46217;DHT22;47258;59.424;13.482;2023-04-03T02:38:36;-1.60;99.90
46217;DHT22;47258;59.424;13.482;2023-04-03T02:41:05;-1.60;99.90
46217;DHT22;47258;59.424;13.482;2023-04-03T02:43:32;-1.60;99.90
46217;DHT22;47258;59.424;13.482;2023-04-03T02:46:00;-1.60;99.90
46217;DHT22;47258;59.424;13.482;2023-04-03T02:48:27;-1.70;99.90
46217;DHT22;47258;59.424;13.482;2023-04-03T02:50:55;-1.70;99.90
46217;DHT22;47258;59.424;13.482;2023-04-03T02:53:22;-1.70;99.90
46217;DHT22;47258;59.424;13.482;2023-04-03T02:55:49;-1.80;99.90
46217;DHT22;47258;59.424;13.482;2023-04-03T02:58:17;-1.80;99.90
46217;DHT22;47258;59.424;13.482;2023-04-03T03:00:45;-1.80;99.90
46217;DHT22;47258;59.424;13.482;2023-04-03T03:03:12;-1.80;99.90
46217;DHT22;47258;59.424;13.482;2023-04-03T03:05:39;-1.90;99.90
46217;DHT22;47258;59.424;13.482;2023-04-03T03:08:06;-1.90;99.90
46217;DHT22;47258;59.424;13.482;2023-04-03T03:10:33;-1.90;99.90
46217;DHT22;47258;59.424;13.482;2023-04-03T03:13:00;-1.90;99.90
46217;DHT22;47258;59.424;13.482;2023-04-03T03:15:29;-2.00;99.90
46217;DHT22;47258;59.424;13.482;2023-04-03T03:17:56;-2.10;99.90
46217;DHT22;47258;59.424;13.482;2023-04-03T03:20:23;-2.10;99.90
46217;DHT22;47258;59.424;13.482;2023-04-03T03:22:50;-2.20;99.90
46217;DHT22;47258;59.424;13.482;2023-04-03T03:25:17;-2.20;99.90
46217;DHT22;47258;59.424;13.482;2023-04-03T03:27:44;-2.30;99.90
46217;DHT22;47258;59.424;13.482;2023-04-03T03:30:11;-2.30;99.90
46217;DHT22;47258;59.424;13.482;2023-04-03T03:32:40;-2.40;99.90
46217;DHT22;47258;59.424;13.482;2023-04-03T03:35:07;-2.40;99.90
46217;DHT22;47258;59.424;13.482;2023-04-03T03:37:34;-2.40;99.90
46217;DHT22;47258;59.424;13.482;2023-04-03T03:40:01;-2.40;99.90
46217;DHT22;47258;59.424;13.482;2023-04-03T03:42:28;-2.40;99.90
46217;DHT22;47258;59.424;13.482;2023-04-03T03:44:55;-2.50;99.90
46217;DHT22;47258;59.424;13.482;2023-04-03T03:47:22;-2.50;99.90
46217;DHT22;47258;59.424;13.482;2023-04-03T03:49:50;-2.50;99.90
46217;DHT22;47258;59.424;13.482;2023-04-03T03:52:17;-2.50;99.90
46217;DHT22;47258;59.424;13.482;2023-04-03T03:54:45;-2.60;99.90
46217;DHT22;47258;59.424;13.482;2023-04-03T03:57:12;-2.60;99.90
46217;DHT22;47258;59.424;13.482;2023-04-03T03:59:39;-2.60;99.90
46217;DHT22;47258;59.424;13.482;2023-04-03T04:02:07;-2.60;99.90
46217;DHT22;47258;59.424;13.482;2023-04-03T04:04:34;-2.70;99.90
46217;DHT22;47258;59.424;13.482;2023-04-03T04:07:03;-2.70;99.90
46217;DHT22;47258;59.424;13.482;2023-04-03T04:09:30;-2.70;99.90
46217;DHT22;47258;59.424;13.482;2023-04-03T04:11:57;-2.70;99.90
46217;DHT22;47258;59.424;13.482;2023-04-03T04:14:24;-2.80;99.90
46217;DHT22;47258;59.424;13.482;2023-04-03T04:16:52;-2.80;99.90
46217;DHT22;47258;59.424;13.482;2023-04-03T04:19:19;-2.80;99.90
46217;DHT22;47258;59.424;13.482;2023-04-03T04:21:46;-2.80;99.90
46217;DHT22;47258;59.424;13.482;2023-04-03T04:24:15;-2.90;99.90
46217;DHT22;47258;59.424;13.482;2023-04-03T04:26:42;-2.90;99.90
46217;DHT22;47258;59.424;13.482;2023-04-03T04:29:09;-2.90;99.90
46217;DHT22;47258;59.424;13.482;2023-04-03T04:31:36;-2.90;99.90
46217;DHT22;47258;59.424;13.482;2023-04-03T04:34:03;-3.00;99.90
46217;DHT22;47258;59.424;13.482;2023-04-03T04:36:30;-3.00;99.90
46217;DHT22;47258;59.424;13.482;2023-04-03T04:38:57;-3.00;99.90
46217;DHT22;47258;59.424;13.482;2023-04-03T04:41:26;-3.00;99.90
46217;DHT22;47258;59.424;13.482;2023-04-03T04:43:53;-3.00;99.90
46217;DHT22;47258;59.424;13.482;2023-04-03T04:46:20;-3.00;99.90
46217;DHT22;47258;59.424;13.482;2023-04-03T04:48:48;-3.10;99.90
46217;DHT22;47258;59.424;13.482;2023-04-03T04:51:15;-3.10;99.90
46217;DHT22;47258;59.424;13.482;2023-04-03T04:53:42;-3.10;99.90
46217;DHT22;47258;59.424;13.482;2023-04-03T04:56:09;-3.10;99.90
46217;DHT22;47258;59.424;13.482;2023-04-03T04:58:38;-3.20;99.90
46217;DHT22;47258;59.424;13.482;2023-04-03T05:01:06;-3.10;99.90
46217;DHT22;47258;59.424;13.482;2023-04-03T05:03:33;-3.20;99.90
46217;DHT22;47258;59.424;13.482;2023-04-03T05:06:01;-3.20;99.90
46217;DHT22;47258;59.424;13.482;2023-04-03T05:08:28;-3.20;99.90
46217;DHT22;47258;59.424;13.482;2023-04-03T05:10:55;-3.20;99.90
46217;DHT22;47258;59.424;13.482;2023-04-03T05:13:22;-3.20;99.90
46217;DHT22;47258;59.424;13.482;2023-04-03T05:15:51;-3.20;99.90
46217;DHT22;47258;59.424;13.482;2023-04-03T05:18:18;-3.20;99.90
46217;DHT22;47258;59.424;13.482;2023-04-03T05:20:45;-3.20;99.90
46217;DHT22;47258;59.424;13.482;2023-04-03T05:23:15;-3.20;99.90
46217;DHT22;47258;59.424;13.482;2023-04-03T05:25:41;-3.20;99.90
46217;DHT22;47258;59.424;13.482;2023-04-03T05:28:09;-3.20;99.90
46217;DHT22;47258;59.424;13.482;2023-04-03T05:30:37;-3.20;99.90
46217;DHT22;47258;59.424;13.482;2023-04-03T05:33:05;-3.20;99.90
46217;DHT22;47258;59.424;13.482;2023-04-03T05:35:32;-3.20;99.90
46217;DHT22;47258;59.424;13.482;2023-04-03T05:37:59;-3.20;99.90
46217;DHT22;47258;59.424;13.482;2023-04-03T05:40:26;-3.20;99.90
46217;DHT22;47258;59.424;13.482;2023-04-03T05:42:53;-3.20;99.90
46217;DHT22;47258;59.424;13.482;2023-04-03T05:45:20;-3.20;99.90
46217;DHT22;47258;59.424;13.482;2023-04-03T05:47:47;-3.20;99.90
46217;DHT22;47258;59.424;13.482;2023-04-03T05:50:16;-3.20;99.90
46217;DHT22;47258;59.424;13.482;2023-04-03T05:52:44;-3.20;99.90
46217;DHT22;47258;59.424;13.482;2023-04-03T05:55:12;-3.20;99.90
46217;DHT22;47258;59.424;13.482;2023-04-03T05:57:41;-3.10;99.90
46217;DHT22;47258;59.424;13.482;2023-04-03T06:00:11;-3.10;99.90
46217;DHT22;47258;59.424;13.482;2023-04-03T06:02:39;-3.10;99.90
46217;DHT22;47258;59.424;13.482;2023-04-03T06:05:07;-3.00;99.90
46217;DHT22;47258;59.424;13.482;2023-04-03T06:07:36;-3.00;99.90
46217;DHT22;47258;59.424;13.482;2023-04-03T06:10:03;-2.90;99.90
46217;DHT22;47258;59.424;13.482;2023-04-03T06:12:31;-2.90;99.90
46217;DHT22;47258;59.424;13.482;2023-04-03T06:14:58;-2.90;99.90
46217;DHT22;47258;59.424;13.482;2023-04-03T06:17:25;-2.90;99.90
46217;DHT22;47258;59.424;13.482;2023-04-03T06:19:52;-2.80;99.90
46217;DHT22;47258;59.424;13.482;2023-04-03T06:22:19;-2.80;99.90
46217;DHT22;47258;59.424;13.482;2023-04-03T06:24:48;-2.70;99.90
46217;DHT22;47258;59.424;13.482;2023-04-03T06:27:15;-2.70;99.90
46217;DHT22;47258;59.424;13.482;2023-04-03T06:29:42;-2.60;99.90
46217;DHT22;47258;59.424;13.482;2023-04-03T06:32:10;-2.60;99.90
46217;DHT22;47258;59.424;13.482;2023-04-03T06:34:37;-2.60;99.90
46217;DHT22;47258;59.424;13.482;2023-04-03T06:37:05;-2.50;99.90
46217;DHT22;47258;59.424;13.482;2023-04-03T06:39:32;-2.40;99.90
46217;DHT22;47258;59.424;13.482;2023-04-03T06:42:01;-2.40;99.90
46217;DHT22;47258;59.424;13.482;2023-04-03T06:44:28;-2.30;99.90
46217;DHT22;47258;59.424;13.482;2023-04-03T06:46:55;-2.20;99.90
46217;DHT22;47258;59.424;13.482;2023-04-03T06:49:22;-2.10;99.90
46217;DHT22;47258;59.424;13.482;2023-04-03T06:51:50;-1.90;99.90
46217;DHT22;47258;59.424;13.482;2023-04-03T06:54:18;-1.50;99.90
46217;DHT22;47258;59.424;13.482;2023-04-03T06:56:45;-1.10;99.90
46217;DHT22;47258;59.424;13.482;2023-04-03T06:59:13;-0.60;99.90
46217;DHT22;47258;59.424;13.482;2023-04-03T07:01:41;-0.10;99.90
46217;DHT22;47258;59.424;13.482;2023-04-03T07:04:08;0.30;99.90
46217;DHT22;47258;59.424;13.482;2023-04-03T07:06:35;0.60;99.90
46217;DHT22;47258;59.424;13.482;2023-04-03T07:09:02;0.90;99.90
46217;DHT22;47258;59.424;13.482;2023-04-03T07:11:29;1.20;99.90
46217;DHT22;47258;59.424;13.482;2023-04-03T07:13:56;1.70;99.90
46217;DHT22;47258;59.424;13.482;2023-04-03T07:16:25;2.30;99.90
46217;DHT22;47258;59.424;13.482;2023-04-03T07:18:52;2.90;99.90
46217;DHT22;47258;59.424;13.482;2023-04-03T07:21:19;3.30;99.90
46217;DHT22;47258;59.424;13.482;2023-04-03T07:23:46;3.70;99.90
46217;DHT22;47258;59.424;13.482;2023-04-03T07:26:13;4.10;99.90
46217;DHT22;47258;59.424;13.482;2023-04-03T07:28:40;4.50;99.90
46217;DHT22;47258;59.424;13.482;2023-04-03T07:31:10;4.80;99.90
46217;DHT22;47258;59.424;13.482;2023-04-03T07:33:40;5.20;99.90
46217;DHT22;47258;59.424;13.482;2023-04-03T07:36:07;5.60;99.90
46217;DHT22;47258;59.424;13.482;2023-04-03T07:38:35;5.80;99.90
46217;DHT22;47258;59.424;13.482;2023-04-03T07:41:03;6.10;99.90
46217;DHT22;47258;59.424;13.482;2023-04-03T07:43:31;6.40;99.90
46217;DHT22;47258;59.424;13.482;2023-04-03T07:45:58;6.50;99.90
46217;DHT22;47258;59.424;13.482;2023-04-03T07:48:26;6.60;99.80
46217;DHT22;47258;59.424;13.482;2023-04-03T07:50:58;6.70;99.80
46217;DHT22;47258;59.424;13.482;2023-04-03T07:53:25;7.00;98.30
46217;DHT22;47258;59.424;13.482;2023-04-03T07:55:52;7.40;98.40
46217;DHT22;47258;59.424;13.482;2023-04-03T07:58:21;7.90;97.60
46217;DHT22;47258;59.424;13.482;2023-04-03T08:00:48;8.30;97.20
46217;DHT22;47258;59.424;13.482;2023-04-03T08:03:15;9.00;96.70
46217;DHT22;47258;59.424;13.482;2023-04-03T08:05:43;9.70;95.50
46217;DHT22;47258;59.424;13.482;2023-04-03T08:08:14;10.30;94.60
46217;DHT22;47258;59.424;13.482;2023-04-03T08:10:42;10.90;93.80
46217;DHT22;47258;59.424;13.482;2023-04-03T08:13:09;11.50;92.50
46217;DHT22;47258;59.424;13.482;2023-04-03T08:15:36;11.90;90.30
46217;DHT22;47258;59.424;13.482;2023-04-03T08:18:03;12.20;87.80
46217;DHT22;47258;59.424;13.482;2023-04-03T08:20:31;12.50;87.00
46217;DHT22;47258;59.424;13.482;2023-04-03T08:22:58;12.90;86.50
46217;DHT22;47258;59.424;13.482;2023-04-03T08:25:27;13.20;85.00
46217;DHT22;47258;59.424;13.482;2023-04-03T08:27:55;13.30;82.30
46217;DHT22;47258;59.424;13.482;2023-04-03T08:30:22;13.60;80.90
46217;DHT22;47258;59.424;13.482;2023-04-03T08:32:50;13.80;79.50
46217;DHT22;47258;59.424;13.482;2023-04-03T08:35:17;13.90;78.60
46217;DHT22;47258;59.424;13.482;2023-04-03T08:37:45;13.90;76.40
46217;DHT22;47258;59.424;13.482;2023-04-03T08:40:13;13.70;76.00
46217;DHT22;47258;59.424;13.482;2023-04-03T08:42:44;13.50;75.00
46217;DHT22;47258;59.424;13.482;2023-04-03T08:45:15;13.20;74.60
46217;DHT22;47258;59.424;13.482;2023-04-03T08:47:44;13.00;75.10
46217;DHT22;47258;59.424;13.482;2023-04-03T08:50:14;12.90;75.20
46217;DHT22;47258;59.424;13.482;2023-04-03T08:52:42;13.10;74.40
46217;DHT22;47258;59.424;13.482;2023-04-03T08:55:14;13.30;74.90
46217;DHT22;47258;59.424;13.482;2023-04-03T08:57:44;13.40;74.50
46217;DHT22;47258;59.424;13.482;2023-04-03T09:00:16;13.50;73.00
46217;DHT22;47258;59.424;13.482;2023-04-03T09:02:44;13.60;73.00
46217;DHT22;47258;59.424;13.482;2023-04-03T09:05:13;13.60;72.80
46217;DHT22;47258;59.424;13.482;2023-04-03T09:07:42;13.40;72.70
46217;DHT22;47258;59.424;13.482;2023-04-03T09:10:10;13.40;73.70
46217;DHT22;47258;59.424;13.482;2023-04-03T09:12:39;13.80;73.70
46217;DHT22;47258;59.424;13.482;2023-04-03T09:15:14;14.20;72.60
46217;DHT22;47258;59.424;13.482;2023-04-03T09:17:45;14.50;72.00
46217;DHT22;47258;59.424;13.482;2023-04-03T09:20:16;14.70;72.60
46217;DHT22;47258;59.424;13.482;2023-04-03T09:22:45;14.80;71.50
46217;DHT22;47258;59.424;13.482;2023-04-03T09:25:14;14.80;72.00
46217;DHT22;47258;59.424;13.482;2023-04-03T09:27:42;14.90;71.40
46217;DHT22;47258;59.424;13.482;2023-04-03T09:30:14;15.00;71.40
46217;DHT22;47258;59.424;13.482;2023-04-03T09:32:43;15.00;71.70
46217;DHT22;47258;59.424;13.482;2023-04-03T09:35:16;14.80;72.10
46217;DHT22;47258;59.424;13.482;2023-04-03T09:37:45;14.50;71.70
46217;DHT22;47258;59.424;13.482;2023-04-03T09:40:27;13.90;72.20
46217;DHT22;47258;59.424;13.482;2023-04-03T09:42:56;13.30;73.30
46217;DHT22;47258;59.424;13.482;2023-04-03T09:45:25;12.70;74.70
46217;DHT22;47258;59.424;13.482;2023-04-03T09:48:03;12.10;75.90
46217;DHT22;47258;59.424;13.482;2023-04-03T09:50:32;11.70;77.00
46217;DHT22;47258;59.424;13.482;2023-04-03T09:53:01;11.20;77.70
46217;DHT22;47258;59.424;13.482;2023-04-03T09:55:30;10.80;79.60
46217;DHT22;47258;59.424;13.482;2023-04-03T09:57:58;10.40;79.40
46217;DHT22;47258;59.424;13.482;2023-04-03T10:00:28;10.10;80.50
46217;DHT22;47258;59.424;13.482;2023-04-03T10:02:57;9.80;81.60
46217;DHT22;47258;59.424;13.482;2023-04-03T10:05:26;9.60;81.50
46217;DHT22;47258;59.424;13.482;2023-04-03T10:08:03;9.30;82.20
46217;DHT22;47258;59.424;13.482;2023-04-03T10:10:33;9.10;81.90
46217;DHT22;47258;59.424;13.482;2023-04-03T10:13:04;8.90;81.90
46217;DHT22;47258;59.424;13.482;2023-04-03T10:15:35;8.80;81.80
46217;DHT22;47258;59.424;13.482;2023-04-03T10:18:04;8.60;82.00
46217;DHT22;47258;59.424;13.482;2023-04-03T10:20:33;8.40;82.20
46217;DHT22;47258;59.424;13.482;2023-04-03T10:23:05;8.30;81.80
46217;DHT22;47258;59.424;13.482;2023-04-03T10:25:40;8.20;82.80
46217;DHT22;47258;59.424;13.482;2023-04-03T10:28:09;8.10;82.50
46217;DHT22;47258;59.424;13.482;2023-04-03T10:30:45;8.00;82.70
46217;DHT22;47258;59.424;13.482;2023-04-03T10:36:12;7.80;82.70
46217;DHT22;47258;59.424;13.482;2023-04-03T10:38:46;7.70;83.80
46217;DHT22;47258;59.424;13.482;2023-04-03T10:41:17;7.60;84.40
46217;DHT22;47258;59.424;13.482;2023-04-03T10:43:50;7.50;84.30
46217;DHT22;47258;59.424;13.482;2023-04-03T10:46:24;7.50;82.90
46217;DHT22;47258;59.424;13.482;2023-04-03T10:48:55;7.40;84.00
46217;DHT22;47258;59.424;13.482;2023-04-03T10:51:27;7.30;85.20
46217;DHT22;47258;59.424;13.482;2023-04-03T10:53:56;7.20;84.70
46217;DHT22;47258;59.424;13.482;2023-04-03T10:56:26;7.20;85.80
46217;DHT22;47258;59.424;13.482;2023-04-03T10:58:57;7.20;84.90
46217;DHT22;47258;59.424;13.482;2023-04-03T11:01:27;7.10;83.60
46217;DHT22;47258;59.424;13.482;2023-04-03T11:03:58;7.10;83.90
46217;DHT22;47258;59.424;13.482;2023-04-03T11:06:26;7.00;84.20
46217;DHT22;47258;59.424;13.482;2023-04-03T11:08:59;7.00;85.20
46217;DHT22;47258;59.424;13.482;2023-04-03T11:11:29;7.00;85.30
46217;DHT22;47258;59.424;13.482;2023-04-03T11:13:58;6.90;86.10
46217;DHT22;47258;59.424;13.482;2023-04-03T11:16:30;6.90;86.60
46217;DHT22;47258;59.424;13.482;2023-04-03T11:18:59;6.90;86.50
46217;DHT22;47258;59.424;13.482;2023-04-03T11:21:28;6.80;85.90
46217;DHT22;47258;59.424;13.482;2023-04-03T11:23:57;6.80;86.20
46217;DHT22;47258;59.424;13.482;2023-04-03T11:26:25;6.80;85.10
46217;DHT22;47258;59.424;13.482;2023-04-03T11:28:56;6.80;85.00
46217;DHT22;47258;59.424;13.482;2023-04-03T11:31:32;6.70;86.60
46217;DHT22;47258;59.424;13.482;2023-04-03T11:34:03;6.70;87.00
46217;DHT22;47258;59.424;13.482;2023-04-03T11:36:32;6.70;86.60
46217;DHT22;47258;59.424;13.482;2023-04-03T11:39:01;6.70;85.90
46217;DHT22;47258;59.424;13.482;2023-04-03T11:41:29;6.70;85.80
46217;DHT22;47258;59.424;13.482;2023-04-03T11:43:57;6.60;85.10
46217;DHT22;47258;59.424;13.482;2023-04-03T11:49:10;6.60;85.90
46217;DHT22;47258;59.424;13.482;2023-04-03T11:51:57;6.60;85.60
46217;DHT22;47258;59.424;13.482;2023-04-03T11:54:43;6.50;87.60
46217;DHT22;47258;59.424;13.482;2023-04-03T11:59:57;6.50;87.60
46217;DHT22;47258;59.424;13.482;2023-04-03T12:02:35;6.50;88.00
46217;DHT22;47258;59.424;13.482;2023-04-03T12:08:03;6.50;89.50
46217;DHT22;47258;59.424;13.482;2023-04-03T12:10:42;6.50;89.30
46217;DHT22;47258;59.424;13.482;2023-04-03T12:13:29;6.50;89.10
46217;DHT22;47258;59.424;13.482;2023-04-03T12:15:57;6.50;88.10
46217;DHT22;47258;59.424;13.482;2023-04-03T12:21:16;6.50;90.00
46217;DHT22;47258;59.424;13.482;2023-04-03T12:23:59;6.50;90.70
46217;DHT22;47258;59.424;13.482;2023-04-03T12:26:27;6.50;89.30
46217;DHT22;47258;59.424;13.482;2023-04-03T12:28:55;6.50;90.60
46217;DHT22;47258;59.424;13.482;2023-04-03T12:31:23;6.50;90.80
46217;DHT22;47258;59.424;13.482;2023-04-03T12:34:01;6.50;90.60
46217;DHT22;47258;59.424;13.482;2023-04-03T12:36:34;6.50;90.70
46217;DHT22;47258;59.424;13.482;2023-04-03T12:39:09;6.50;91.30
46217;DHT22;47258;59.424;13.482;2023-04-03T12:41:41;6.50;91.40
46217;DHT22;47258;59.424;13.482;2023-04-03T12:44:23;6.50;91.90
46217;DHT22;47258;59.424;13.482;2023-04-03T12:46:52;6.60;92.10
46217;DHT22;47258;59.424;13.482;2023-04-03T12:52:03;6.60;92.30
46217;DHT22;47258;59.424;13.482;2023-04-03T12:54:36;6.70;92.50
46217;DHT22;47258;59.424;13.482;2023-04-03T12:57:11;6.70;92.60
46217;DHT22;47258;59.424;13.482;2023-04-03T12:59:43;6.70;92.60
46217;DHT22;47258;59.424;13.482;2023-04-03T13:02:17;6.70;91.90
46217;DHT22;47258;59.424;13.482;2023-04-03T13:04:46;6.70;92.10
46217;DHT22;47258;59.424;13.482;2023-04-03T13:07:23;6.70;92.00
46217;DHT22;47258;59.424;13.482;2023-04-03T13:09:58;6.70;91.80
46217;DHT22;47258;59.424;13.482;2023-04-03T13:12:26;6.70;92.00
46217;DHT22;47258;59.424;13.482;2023-04-03T13:14:54;6.70;92.10
46217;DHT22;47258;59.424;13.482;2023-04-03T13:17:21;6.70;92.60
46217;DHT22;47258;59.424;13.482;2023-04-03T13:19:49;6.70;92.50
46217;DHT22;47258;59.424;13.482;2023-04-03T13:22:21;6.70;92.70
46217;DHT22;47258;59.424;13.482;2023-04-03T13:24:52;6.70;92.40
46217;DHT22;47258;59.424;13.482;2023-04-03T13:27:21;6.70;91.90
46217;DHT22;47258;59.424;13.482;2023-04-03T13:29:49;6.70;91.20
46217;DHT22;47258;59.424;13.482;2023-04-03T13:32:18;6.70;90.90
46217;DHT22;47258;59.424;13.482;2023-04-03T13:34:46;6.60;91.10
46217;DHT22;47258;59.424;13.482;2023-04-03T13:37:22;6.60;91.50
46217;DHT22;47258;59.424;13.482;2023-04-03T13:39:57;6.60;91.30
46217;DHT22;47258;59.424;13.482;2023-04-03T13:42:26;6.60;91.30
46217;DHT22;47258;59.424;13.482;2023-04-03T13:45:11;6.60;91.70
46217;DHT22;47258;59.424;13.482;2023-04-03T13:47:43;6.60;92.00
46217;DHT22;47258;59.424;13.482;2023-04-03T13:50:15;6.60;92.50
46217;DHT22;47258;59.424;13.482;2023-04-03T13:52:44;6.60;92.10
46217;DHT22;47258;59.424;13.482;2023-04-03T13:55:17;6.50;92.10
46217;DHT22;47258;59.424;13.482;2023-04-03T13:57:53;6.50;92.10
46217;DHT22;47258;59.424;13.482;2023-04-03T14:00:22;6.50;92.30
46217;DHT22;47258;59.424;13.482;2023-04-03T14:02:53;6.50;92.40
46217;DHT22;47258;59.424;13.482;2023-04-03T14:05:21;6.50;92.10
46217;DHT22;47258;59.424;13.482;2023-04-03T14:07:50;6.50;92.30
46217;DHT22;47258;59.424;13.482;2023-04-03T14:10:17;6.60;92.70
46217;DHT22;47258;59.424;13.482;2023-04-03T14:12:45;6.50;93.00
46217;DHT22;47258;59.424;13.482;2023-04-03T14:15:16;6.50;93.20
46217;DHT22;47258;59.424;13.482;2023-04-03T14:17:45;6.60;93.10
46217;DHT22;47258;59.424;13.482;2023-04-03T14:20:14;6.60;93.20
46217;DHT22;47258;59.424;13.482;2023-04-03T14:22:41;6.60;93.50
46217;DHT22;47258;59.424;13.482;2023-04-03T14:25:09;6.60;93.20
46217;DHT22;47258;59.424;13.482;2023-04-03T14:27:37;6.60;92.90
46217;DHT22;47258;59.424;13.482;2023-04-03T14:30:06;6.60;93.10
46217;DHT22;47258;59.424;13.482;2023-04-03T14:32:35;6.60;93.00
46217;DHT22;47258;59.424;13.482;2023-04-03T14:35:04;6.60;93.00
46217;DHT22;47258;59.424;13.482;2023-04-03T14:37:32;6.50;93.00
46217;DHT22;47258;59.424;13.482;2023-04-03T14:40:00;6.50;92.80
46217;DHT22;47258;59.424;13.482;2023-04-03T14:42:29;6.60;92.80
46217;DHT22;47258;59.424;13.482;2023-04-03T14:44:59;6.50;93.00
46217;DHT22;47258;59.424;13.482;2023-04-03T14:47:27;6.50;93.00
46217;DHT22;47258;59.424;13.482;2023-04-03T14:49:57;6.50;93.20
46217;DHT22;47258;59.424;13.482;2023-04-03T14:52:26;6.50;93.40
46217;DHT22;47258;59.424;13.482;2023-04-03T14:54:53;6.50;93.00
46217;DHT22;47258;59.424;13.482;2023-04-03T14:57:21;6.50;93.20
46217;DHT22;47258;59.424;13.482;2023-04-03T14:59:49;6.40;93.40
46217;DHT22;47258;59.424;13.482;2023-04-03T15:05:04;6.40;93.60
46217;DHT22;47258;59.424;13.482;2023-04-03T15:07:32;6.40;93.40
46217;DHT22;47258;59.424;13.482;2023-04-03T15:10:00;6.40;93.50
46217;DHT22;47258;59.424;13.482;2023-04-03T15:12:28;6.40;93.60
46217;DHT22;47258;59.424;13.482;2023-04-03T15:14:55;6.40;93.30
46217;DHT22;47258;59.424;13.482;2023-04-03T15:17:23;6.40;93.60
46217;DHT22;47258;59.424;13.482;2023-04-03T15:19:50;6.40;93.80
46217;DHT22;47258;59.424;13.482;2023-04-03T15:22:19;6.40;93.60
46217;DHT22;47258;59.424;13.482;2023-04-03T15:24:46;6.30;93.30
46217;DHT22;47258;59.424;13.482;2023-04-03T15:27:14;6.30;93.50
46217;DHT22;47258;59.424;13.482;2023-04-03T15:29:42;6.30;93.80
46217;DHT22;47258;59.424;13.482;2023-04-03T15:32:10;6.30;93.70
46217;DHT22;47258;59.424;13.482;2023-04-03T15:34:37;6.20;93.80
46217;DHT22;47258;59.424;13.482;2023-04-03T15:37:05;6.20;93.80
46217;DHT22;47258;59.424;13.482;2023-04-03T15:39:33;6.20;93.80
46217;DHT22;47258;59.424;13.482;2023-04-03T15:42:01;6.20;93.50
46217;DHT22;47258;59.424;13.482;2023-04-03T15:44:31;6.10;93.30
46217;DHT22;47258;59.424;13.482;2023-04-03T15:46:59;6.10;93.30
46217;DHT22;47258;59.424;13.482;2023-04-03T15:49:26;6.00;93.50
46217;DHT22;47258;59.424;13.482;2023-04-03T15:51:53;6.00;93.60
46217;DHT22;47258;59.424;13.482;2023-04-03T15:54:21;6.00;93.30